createdAt,value
2023-04-10T00:00:33.015Z,68.85
2023-04-10T00:03:03.545Z,68.61
2023-04-10T00:05:30.898Z,69.14
2023-04-10T00:07:57.937Z,68.74
2023-04-10T00:10:26.592Z,68.75
2023-04-10T00:12:54.121Z,68.81
2023-04-10T00:15:21.216Z,68.67
2023-04-10T00:17:50.604Z,68.11
2023-04-10T00:20:17.722Z,68.06
2023-04-10T00:22:44.583Z,67.51
2023-04-10T00:25:11.567Z,68.66
2023-04-10T00:27:38.499Z,68.58
2023-04-10T00:30:06.405Z,68.11
2023-04-10T00:32:33.342Z,67.99
2023-04-10T00:35:00.298Z,68.12
2023-04-10T00:37:27.569Z,67.70
2023-04-10T00:39:54.441Z,67.67
2023-04-10T00:42:21.357Z,68.75
2023-04-10T00:44:48.325Z,68.40
2023-04-10T00:47:15.713Z,68.75
2023-04-10T00:49:43.520Z,68.84
2023-04-10T00:52:10.826Z,68.88
2023-04-10T00:54:38.398Z,68.94
2023-04-10T00:57:05.384Z,68.64
2023-04-10T00:59:32.580Z,67.68
2023-04-10T01:02:00.024Z,67.98
2023-04-10T01:04:28.895Z,68.73
2023-04-10T01:07:46.122Z,68.53
2023-04-10T01:10:26.961Z,67.64
2023-04-10T01:13:12.784Z,68.24
2023-04-10T01:15:48.161Z,68.17
2023-04-10T01:18:34.404Z,67.57
2023-04-10T01:21:03.083Z,66.95
2023-04-10T01:23:45.517Z,66.80
2023-04-10T01:26:17.425Z,67.09
2023-04-10T01:29:04.885Z,66.85
2023-04-10T01:31:42.014Z,66.57
2023-04-10T01:34:16.309Z,66.30
2023-04-10T01:36:56.654Z,66.52
2023-04-10T01:39:26.602Z,65.85
2023-04-10T01:41:54.608Z,65.73
2023-04-10T01:44:32.797Z,65.84
2023-04-10T01:47:02.509Z,66.64
2023-04-10T01:49:32.053Z,65.99
2023-04-10T01:52:04.577Z,65.99
2023-04-10T01:54:33.631Z,64.75
2023-04-10T01:57:04.169Z,65.40
2023-04-10T01:59:39.584Z,65.45
2023-04-10T02:02:07.932Z,64.93
2023-04-10T02:04:34.980Z,65.58
2023-04-10T02:07:05.145Z,65.13
2023-04-10T02:09:52.790Z,65.60
2023-04-10T02:12:26.372Z,65.54
2023-04-10T02:14:56.425Z,66.22
2023-04-10T02:17:28.886Z,66.93
2023-04-10T02:20:00.390Z,67.18
2023-04-10T02:22:28.206Z,67.36
2023-04-10T02:24:55.235Z,66.34
2023-04-10T02:27:35.125Z,66.55
2023-04-10T02:30:05.969Z,67.22
2023-04-10T02:32:35.525Z,66.46
2023-04-10T02:35:03.261Z,66.43
2023-04-10T02:37:31.360Z,67.32
2023-04-10T02:40:00.713Z,66.94
2023-04-10T02:42:33.787Z,68.77
2023-04-10T02:45:01.897Z,70.08
2023-04-10T02:47:34.882Z,70.41
2023-04-10T02:50:02.577Z,71.03
2023-04-10T02:52:34.490Z,70.60
2023-04-10T02:55:01.453Z,69.87
2023-04-10T02:57:35.091Z,70.06
2023-04-10T03:00:03.025Z,68.80
2023-04-10T03:02:35.909Z,68.00
2023-04-10T03:05:12.833Z,68.86
2023-04-10T03:07:39.696Z,68.49
2023-04-10T03:10:07.154Z,68.11
2023-04-10T03:12:34.104Z,67.51
2023-04-10T03:15:01.295Z,68.32
2023-04-10T03:17:28.269Z,67.98
2023-04-10T03:19:55.495Z,68.06
2023-04-10T03:22:23.234Z,67.53
2023-04-10T03:24:50.080Z,68.30
2023-04-10T03:27:17.638Z,68.35
2023-04-10T03:29:44.463Z,67.66
2023-04-10T03:32:12.017Z,68.25
2023-04-10T03:34:39.070Z,69.03
2023-04-10T03:37:05.929Z,69.10
2023-04-10T03:39:33.623Z,68.51
2023-04-10T03:42:00.836Z,69.02
2023-04-10T03:44:27.682Z,69.65
2023-04-10T03:46:54.684Z,68.75
2023-04-10T03:49:21.860Z,68.83
2023-04-10T03:51:48.901Z,69.69
2023-04-10T03:54:15.837Z,69.51
2023-04-10T03:56:42.837Z,69.09
2023-04-10T03:59:11.676Z,69.38
2023-04-10T04:01:41.186Z,70.65
2023-04-10T04:04:10.914Z,69.08
2023-04-10T04:06:56.236Z,68.91
2023-04-10T04:09:23.038Z,69.56
2023-04-10T04:12:08.498Z,69.74
2023-04-10T04:15:00.045Z,68.60
2023-04-10T04:17:47.233Z,68.69
2023-04-10T04:20:32.623Z,68.83
2023-04-10T04:23:28.675Z,67.88
2023-04-10T04:26:01.691Z,67.67
2023-04-10T04:28:47.468Z,68.69
2023-04-10T04:31:32.786Z,66.95
2023-04-10T04:34:18.489Z,67.01
2023-04-10T04:37:05.603Z,68.19
2023-04-10T04:39:46.743Z,67.58
2023-04-10T04:42:31.682Z,66.08
2023-04-10T04:45:12.411Z,67.19
2023-04-10T04:47:42.327Z,67.26
2023-04-10T04:50:41.256Z,65.86
2023-04-10T04:53:26.959Z,65.89
2023-04-10T04:56:05.893Z,67.66
2023-04-10T04:58:51.240Z,66.25
2023-04-10T05:01:53.374Z,66.17
2023-04-10T05:04:40.923Z,67.10
2023-04-10T05:07:16.874Z,65.96
2023-04-10T05:09:55.258Z,65.79
2023-04-10T05:12:46.567Z,66.33
2023-04-10T05:15:37.873Z,65.95
2023-04-10T05:18:11.888Z,65.51
2023-04-10T05:20:56.497Z,64.26
2023-04-10T05:23:41.033Z,65.40
2023-04-10T05:26:44.071Z,64.62
2023-04-10T05:29:33.714Z,63.53
2023-04-10T05:32:26.887Z,64.18
2023-04-10T05:35:19.678Z,64.73
2023-04-10T05:38:03.602Z,63.34
2023-04-10T05:40:45.821Z,62.60
2023-04-10T05:43:36.643Z,63.93
2023-04-10T05:46:22.021Z,62.61
2023-04-10T05:49:09.275Z,61.79
2023-04-10T05:51:43.663Z,62.76
2023-04-10T05:54:29.089Z,63.08
2023-04-10T05:57:22.155Z,61.45
2023-04-10T06:00:09.890Z,60.32
2023-04-10T06:03:03.731Z,62.25
2023-04-10T06:05:32.408Z,61.43
2023-04-10T06:08:04.044Z,59.97
2023-04-10T06:10:31.246Z,60.14
2023-04-10T06:12:58.090Z,61.18
2023-04-10T06:15:26.176Z,61.05
2023-04-10T06:17:54.188Z,58.93
2023-04-10T06:20:21.629Z,58.68
2023-04-10T06:22:50.717Z,59.79
2023-04-10T06:25:17.683Z,60.69
2023-04-10T06:27:44.727Z,59.27
2023-04-10T06:30:11.942Z,59.43
2023-04-10T06:32:39.342Z,59.86
2023-04-10T06:35:06.482Z,59.86
2023-04-10T06:37:33.406Z,58.75
2023-04-10T06:40:08.891Z,57.17
2023-04-10T06:42:36.844Z,56.24
2023-04-10T06:45:12.851Z,56.57
2023-04-10T06:47:40.132Z,56.18
2023-04-10T06:50:07.287Z,57.21
2023-04-10T06:52:35.505Z,56.51
2023-04-10T06:55:03.703Z,54.94
2023-04-10T06:57:30.598Z,53.19
2023-04-10T06:59:57.609Z,52.55
2023-04-10T07:02:24.656Z,51.79
2023-04-10T07:04:53.720Z,53.15
2023-04-10T07:07:20.796Z,53.95
2023-04-10T07:09:47.720Z,53.29
2023-04-10T07:12:16.636Z,52.08
2023-04-10T07:14:43.599Z,54.40
2023-04-10T07:17:10.409Z,52.89
2023-04-10T07:19:38.244Z,50.45
2023-04-10T07:22:05.090Z,49.59
2023-04-10T07:24:32.776Z,49.07
2023-04-10T07:39:38.205Z,48.28
2023-04-10T07:42:05.181Z,49.06
2023-04-10T07:44:32.053Z,49.90
2023-04-10T07:46:59.130Z,48.09
2023-04-10T07:49:26.412Z,47.75
2023-04-10T07:51:53.401Z,48.01
2023-04-10T07:54:20.370Z,48.79
2023-04-10T07:56:48.159Z,48.81
2023-04-10T07:59:15.010Z,49.22
2023-04-10T08:01:41.980Z,51.83
2023-04-10T08:04:09.356Z,53.39
2023-04-10T08:06:36.372Z,52.04
2023-04-10T08:09:03.296Z,51.06
2023-04-10T08:14:02.153Z,52.85
2023-04-10T08:16:32.105Z,50.95
2023-04-10T08:19:00.400Z,49.17
2023-04-10T08:21:29.468Z,48.85
2023-04-10T08:24:03.809Z,48.61
2023-04-10T08:26:30.855Z,47.88
2023-04-10T08:28:59.152Z,50.25
2023-04-10T08:31:28.255Z,51.58
2023-04-10T08:33:56.399Z,53.90
2023-04-10T08:36:23.841Z,53.65
2023-04-10T08:38:50.771Z,52.67
2023-04-10T08:41:19.473Z,55.49
2023-04-10T08:43:47.042Z,55.74
2023-04-10T08:46:15.168Z,53.43
2023-04-10T08:48:46.318Z,52.50
2023-04-10T08:51:20.279Z,51.79
2023-04-10T08:53:50.791Z,52.00
2023-04-10T08:56:18.887Z,52.36
2023-04-10T08:58:46.293Z,52.32
2023-04-10T09:01:13.824Z,51.81
2023-04-10T09:03:41.123Z,53.78
2023-04-10T09:06:09.202Z,53.52
2023-04-10T09:08:36.142Z,54.05
2023-04-10T09:11:06.226Z,54.31
2023-04-10T09:13:39.395Z,54.95
2023-04-10T09:16:07.496Z,55.52
2023-04-10T09:18:44.853Z,56.12
2023-04-10T09:21:13.985Z,56.51
2023-04-10T09:23:42.777Z,57.36
2023-04-10T09:26:30.182Z,58.39
2023-04-10T09:29:07.855Z,58.56
2023-04-10T09:31:36.738Z,58.65
2023-04-10T09:34:23.072Z,58.51
2023-04-10T09:36:58.073Z,57.62
2023-04-10T09:39:37.002Z,58.00
2023-04-10T09:42:04.509Z,56.71
2023-04-10T09:44:42.006Z,56.59
2023-04-10T09:47:14.844Z,56.61
2023-04-10T09:49:49.144Z,57.52
2023-04-10T09:52:26.469Z,56.59
2023-04-10T09:54:55.446Z,56.44
2023-04-10T09:57:24.135Z,55.35
2023-04-10T09:59:55.957Z,55.50
2023-04-10T10:02:26.124Z,54.59
2023-04-10T10:04:53.199Z,55.08
2023-04-10T10:07:23.042Z,54.96
2023-04-10T10:09:52.818Z,55.22
2023-04-10T10:12:24.543Z,55.77
2023-04-10T10:15:10.807Z,55.13
2023-04-10T10:18:04.294Z,53.77
2023-04-10T10:20:36.545Z,52.66
2023-04-10T10:23:04.360Z,53.00
2023-04-10T10:25:31.833Z,54.76
2023-04-10T10:28:03.460Z,54.63
2023-04-10T10:30:34.242Z,55.96
2023-04-10T10:33:03.126Z,57.49
2023-04-10T10:35:36.140Z,58.12
2023-04-10T10:38:04.829Z,58.93
2023-04-10T10:40:35.556Z,58.28
2023-04-10T10:43:08.538Z,58.28
2023-04-10T10:45:48.812Z,57.44
2023-04-10T10:48:15.853Z,57.02
2023-04-10T10:50:53.135Z,55.72
2023-04-10T10:53:44.066Z,55.13
2023-04-10T10:56:20.036Z,53.46
2023-04-10T10:58:48.180Z,52.73
2023-04-10T11:01:16.074Z,52.24
2023-04-10T11:03:46.791Z,51.98
2023-04-10T11:06:19.710Z,53.51
2023-04-10T11:08:53.273Z,52.82
2023-04-10T11:11:25.287Z,53.94
2023-04-10T11:13:57.818Z,53.86
2023-04-10T11:16:31.695Z,53.96
2023-04-10T11:19:10.465Z,54.70
2023-04-10T11:22:04.820Z,56.17
2023-04-10T11:24:52.308Z,56.59
2023-04-10T11:27:43.954Z,57.46
2023-04-10T11:30:33.683Z,57.89
2023-04-10T11:33:01.690Z,57.10
2023-04-10T11:35:29.195Z,57.65
2023-04-10T11:38:13.752Z,58.97
2023-04-10T11:41:01.811Z,59.77
2023-04-10T11:43:29.052Z,59.95
2023-04-10T11:46:07.659Z,60.12
2023-04-10T11:48:35.576Z,60.58
2023-04-10T11:51:10.057Z,60.41
2023-04-10T11:53:37.984Z,60.41
2023-04-10T11:56:07.560Z,60.19
2023-04-10T11:58:34.407Z,60.06
2023-04-10T12:01:04.868Z,60.59
2023-04-10T12:03:49.931Z,60.46
2023-04-10T12:06:17.253Z,60.34
2023-04-10T12:08:46.333Z,60.39
2023-04-10T12:11:14.614Z,60.39
2023-04-10T12:13:41.550Z,59.94
2023-04-10T12:16:11.051Z,59.01
2023-04-10T12:18:38.432Z,59.18
2023-04-10T12:21:08.142Z,58.88
2023-04-10T12:23:38.444Z,58.70
2023-04-10T12:26:16.772Z,58.20
2023-04-10T12:28:52.600Z,58.09
2023-04-10T12:31:31.099Z,57.81
2023-04-10T12:33:59.224Z,57.61
2023-04-10T12:36:30.036Z,56.44
2023-04-10T12:38:58.536Z,55.94
2023-04-10T12:41:29.635Z,56.17
2023-04-10T12:44:11.405Z,54.21
2023-04-10T12:46:39.317Z,52.92
2023-04-10T12:49:13.879Z,53.06
2023-04-10T12:51:51.939Z,53.06
2023-04-10T12:54:32.240Z,53.29
2023-04-10T12:57:00.022Z,53.35
2023-04-10T12:59:28.027Z,53.78
2023-04-10T13:01:55.662Z,53.55
2023-04-10T13:04:23.976Z,53.85
2023-04-10T13:06:53.951Z,53.85
2023-04-10T13:09:21.320Z,53.86
2023-04-10T13:11:50.262Z,53.07
2023-04-10T13:14:18.583Z,53.23
2023-04-10T13:16:45.672Z,52.01
2023-04-10T13:19:13.248Z,51.72
2023-04-10T13:21:40.252Z,51.39
2023-04-10T13:24:07.340Z,51.58
2023-04-10T13:26:34.303Z,52.00
2023-04-10T13:29:01.182Z,51.76
2023-04-10T13:31:28.220Z,51.91
2023-04-10T13:33:55.262Z,51.55
2023-04-10T13:36:22.591Z,51.42
2023-04-10T13:38:49.743Z,51.77
2023-04-10T13:41:16.642Z,51.50
2023-04-10T13:43:43.518Z,51.29
2023-04-10T13:46:10.483Z,51.44
2023-04-10T13:48:41.500Z,50.31
2023-04-10T13:51:09.042Z,50.56
2023-04-10T13:53:36.126Z,50.09
2023-04-10T13:56:03.095Z,49.97
2023-04-10T13:58:32.179Z,49.85
2023-04-10T14:00:59.470Z,49.57
2023-04-10T14:03:26.518Z,49.96
2023-04-10T14:05:54.517Z,50.90
2023-04-10T14:08:21.394Z,50.90
2023-04-10T14:10:51.848Z,51.08
2023-04-10T14:13:19.231Z,51.37
2023-04-10T14:15:46.555Z,51.36
2023-04-10T14:18:17.572Z,50.91
2023-04-10T14:20:44.854Z,50.73
2023-04-10T14:23:18.451Z,51.19
2023-04-10T14:25:46.510Z,51.20
2023-04-10T14:28:19.226Z,51.81
2023-04-10T14:30:48.637Z,52.22
2023-04-10T14:33:16.482Z,51.97
2023-04-10T14:35:44.462Z,52.08
2023-04-10T14:38:11.810Z,52.24
2023-04-10T14:40:40.826Z,52.89
2023-04-10T14:43:07.964Z,52.95
2023-04-10T14:45:34.913Z,52.77
2023-04-10T14:48:02.756Z,53.41
2023-04-10T14:50:32.066Z,53.36
2023-04-10T14:53:02.606Z,53.56
2023-04-10T14:55:30.154Z,54.10
2023-04-10T14:57:58.620Z,54.75
2023-04-10T15:00:26.238Z,55.73
2023-04-10T15:02:53.296Z,55.49
2023-04-10T15:05:20.385Z,55.12
2023-04-10T15:07:47.207Z,55.59
2023-04-10T15:10:14.097Z,55.66
2023-04-10T15:12:41.043Z,55.25
2023-04-10T15:15:08.331Z,55.48
2023-04-10T15:17:35.523Z,56.00
2023-04-10T15:20:02.430Z,55.96
2023-04-10T15:22:29.598Z,56.46
2023-04-10T15:24:56.659Z,55.68
2023-04-10T15:27:23.507Z,56.22
2023-04-10T15:29:50.425Z,56.27
2023-04-10T15:32:17.320Z,57.02
2023-04-10T15:34:44.826Z,57.85
2023-04-10T15:37:11.754Z,58.09
2023-04-10T15:39:38.771Z,59.62
2023-04-10T15:42:08.391Z,58.15
2023-04-10T15:44:35.456Z,58.25
2023-04-10T15:47:02.361Z,59.06
2023-04-10T15:49:37.606Z,59.31
2023-04-10T15:52:06.715Z,58.66
2023-04-10T15:54:34.214Z,59.74
2023-04-10T15:57:02.327Z,59.21
2023-04-10T15:59:29.741Z,59.23
2023-04-10T16:01:56.801Z,59.24
2023-04-10T16:04:24.209Z,59.63
2023-04-10T16:06:51.439Z,59.70
2023-04-10T16:09:25.316Z,59.64
2023-04-10T16:11:54.029Z,61.47
2023-04-10T16:14:20.915Z,60.35
2023-04-10T16:16:47.887Z,60.09
2023-04-10T16:19:14.761Z,61.58
2023-04-10T16:21:45.148Z,61.80
2023-04-10T16:24:12.027Z,61.39
2023-04-10T16:26:39.067Z,61.63
2023-04-10T16:29:06.637Z,61.65
2023-04-10T16:31:33.605Z,61.71
2023-04-10T16:34:01.516Z,61.74
2023-04-10T16:36:28.433Z,62.25
2023-04-10T16:38:55.692Z,62.19
2023-04-10T16:41:23.029Z,62.55
2023-04-10T16:43:50.096Z,63.45
2023-04-10T16:46:16.974Z,63.77
2023-04-10T16:48:44.328Z,63.28
2023-04-10T16:51:17.857Z,63.66
2023-04-10T16:53:45.013Z,63.86
2023-04-10T16:56:12.025Z,62.89
2023-04-10T16:58:41.214Z,62.18
2023-04-10T17:01:26.171Z,62.90
2023-04-10T17:03:54.551Z,62.40
2023-04-10T17:06:21.427Z,62.83
2023-04-10T17:08:48.427Z,63.50
2023-04-10T17:11:16.138Z,64.20
2023-04-10T17:13:43.526Z,63.37
2023-04-10T17:16:10.809Z,63.94
2023-04-10T17:18:38.840Z,64.88
2023-04-10T17:21:06.082Z,64.49
2023-04-10T17:23:32.912Z,64.43
2023-04-10T17:25:59.938Z,64.61
2023-04-10T17:28:26.794Z,64.95
2023-04-10T17:30:53.755Z,64.40
2023-04-10T17:33:21.894Z,64.64
2023-04-10T17:35:50.745Z,64.85
2023-04-10T17:38:18.262Z,65.21
2023-04-10T17:40:46.304Z,65.46
2023-04-10T17:43:13.213Z,64.94
2023-04-10T17:45:40.285Z,65.81
2023-04-10T17:48:07.818Z,66.24
2023-04-10T17:50:35.407Z,65.21
2023-04-10T17:53:02.455Z,65.54
2023-04-10T17:55:29.404Z,66.30
2023-04-10T17:57:59.201Z,65.58
2023-04-10T18:00:26.589Z,66.24
2023-04-10T18:02:59.936Z,66.25
2023-04-10T18:05:31.076Z,67.07
2023-04-10T18:07:57.932Z,66.11
2023-04-10T18:10:24.718Z,66.62
2023-04-10T18:12:51.705Z,67.34
2023-04-10T18:15:18.861Z,66.53
2023-04-10T18:17:45.790Z,66.48
2023-04-10T18:20:12.786Z,67.11
2023-04-10T18:22:39.828Z,68.26
2023-04-10T18:25:07.419Z,66.97
2023-04-10T18:27:36.023Z,67.64
2023-04-10T18:30:03.038Z,68.18
2023-04-10T18:32:30.022Z,68.42
2023-04-10T18:34:56.881Z,67.86
2023-04-10T18:37:23.823Z,67.43
2023-04-10T18:39:50.798Z,68.42
2023-04-10T18:42:17.803Z,69.48
2023-04-10T18:44:44.918Z,68.79
2023-04-10T18:47:11.797Z,69.24
2023-04-10T18:49:38.743Z,68.78
2023-04-10T18:52:05.705Z,70.45
2023-04-10T18:54:33.956Z,69.35
2023-04-10T18:57:01.209Z,69.71
2023-04-10T18:59:28.894Z,71.23
2023-04-10T19:01:55.842Z,70.82
2023-04-10T19:04:22.986Z,71.34
2023-04-10T19:06:50.193Z,73.61
2023-04-10T19:09:17.372Z,74.42
2023-04-10T19:11:44.543Z,74.39
2023-04-10T19:14:11.399Z,75.21
2023-04-10T19:16:38.380Z,75.84
2023-04-10T19:19:05.442Z,76.62
2023-04-10T19:21:32.608Z,77.43
2023-04-10T19:23:59.661Z,77.68
2023-04-10T19:26:26.665Z,78.96
2023-04-10T19:41:26.315Z,87.17
2023-04-10T19:43:54.380Z,86.03
2023-04-10T19:46:22.379Z,84.66
2023-04-10T19:48:59.887Z,86.08
2023-04-10T19:51:28.112Z,85.40
2023-04-10T19:53:58.567Z,85.86
2023-04-10T19:56:27.787Z,86.31
2023-04-10T19:58:54.781Z,86.73
2023-04-10T20:01:24.262Z,87.06
2023-04-10T20:03:51.611Z,88.45
2023-04-10T20:06:18.828Z,87.89
2023-04-10T20:08:45.886Z,89.02
2023-04-10T20:11:12.749Z,88.73
2023-04-10T20:13:40.972Z,88.39
2023-04-10T20:16:08.690Z,88.44
2023-04-10T20:18:36.235Z,87.52
2023-04-10T20:21:04.681Z,87.03
2023-04-10T20:23:31.918Z,89.04
2023-04-10T20:25:58.904Z,88.04
2023-04-10T20:28:25.808Z,87.47
2023-04-10T20:30:52.704Z,89.30
2023-04-10T20:33:19.566Z,89.65
2023-04-10T20:35:46.574Z,89.32
2023-04-10T20:38:13.460Z,91.03
2023-04-10T20:40:40.594Z,90.64
2023-04-10T20:43:11.860Z,90.76
2023-04-10T20:45:39.634Z,91.93
2023-04-10T20:48:08.325Z,91.27
2023-04-10T20:50:37.033Z,91.92
2023-04-10T20:53:04.077Z,91.83
2023-04-10T20:55:31.092Z,90.96
2023-04-10T20:57:58.801Z,92.01
2023-04-10T21:00:25.887Z,91.71
2023-04-10T21:02:54.390Z,91.47
2023-04-10T21:05:21.450Z,91.86
2023-04-10T21:07:53.905Z,92.26
2023-04-10T21:10:21.332Z,91.08
2023-04-10T21:12:54.040Z,92.88
2023-04-10T21:15:22.642Z,92.81
2023-04-10T21:17:49.575Z,93.08
2023-04-10T21:20:21.373Z,93.56
2023-04-10T21:22:51.425Z,93.21
2023-04-10T21:25:21.247Z,93.20
2023-04-10T21:27:48.104Z,92.94
2023-04-10T21:30:15.211Z,93.50
2023-04-10T21:32:42.178Z,93.24
2023-04-10T21:35:09.677Z,94.23
2023-04-10T21:37:39.279Z,94.78
2023-04-10T21:40:09.445Z,94.12
2023-04-10T21:42:44.105Z,93.62
2023-04-10T21:45:13.839Z,94.36
2023-04-10T21:47:49.561Z,94.60
2023-04-10T21:50:16.527Z,93.96
2023-04-10T21:52:43.399Z,94.53
2023-04-10T21:55:10.794Z,94.96
2023-04-10T21:57:38.126Z,95.67
2023-04-10T22:00:05.421Z,93.64
2023-04-10T22:02:32.655Z,94.66
2023-04-10T22:04:59.809Z,95.17
2023-04-10T22:07:27.016Z,94.25
2023-04-10T22:09:56.382Z,93.68
2023-04-10T22:12:23.221Z,95.33
2023-04-10T22:14:51.320Z,95.43
2023-04-10T22:17:18.216Z,95.44
2023-04-10T22:19:45.211Z,95.64
2023-04-10T22:22:12.181Z,95.88
2023-04-10T22:24:39.056Z,94.91
2023-04-10T22:27:06.112Z,94.85
2023-04-10T22:29:35.139Z,95.52
2023-04-10T22:32:02.170Z,96.03
2023-04-10T22:34:29.090Z,94.48
2023-04-10T22:36:56.024Z,93.90
2023-04-10T22:39:22.869Z,94.55
2023-04-10T22:41:49.751Z,94.95
2023-04-10T22:44:16.622Z,94.42
2023-04-10T22:46:44.036Z,94.66
2023-04-10T22:49:10.984Z,94.88
2023-04-10T22:51:37.799Z,94.65
2023-04-10T22:54:04.684Z,93.67
2023-04-10T22:56:31.997Z,94.34
2023-04-10T22:58:58.792Z,94.31
2023-04-10T23:01:25.746Z,94.07
2023-04-10T23:03:53.974Z,93.80
2023-04-10T23:06:21.203Z,94.57
2023-04-10T23:08:48.117Z,95.16
2023-04-10T23:11:15.002Z,93.55
2023-04-10T23:13:43.231Z,93.95
2023-04-10T23:16:10.623Z,94.64
2023-04-10T23:18:37.733Z,94.22
2023-04-10T23:21:08.904Z,93.43
2023-04-10T23:23:35.813Z,94.39
2023-04-10T23:26:02.839Z,94.93
2023-04-10T23:28:29.680Z,94.13
2023-04-10T23:30:56.748Z,93.53
2023-04-10T23:33:23.766Z,94.09
2023-04-10T23:35:50.702Z,94.56
2023-04-10T23:38:17.720Z,93.54
2023-04-10T23:40:44.892Z,92.79
2023-04-10T23:43:11.908Z,93.59
2023-04-10T23:45:39.064Z,94.61
2023-04-10T23:48:08.960Z,93.23
2023-04-10T23:50:35.875Z,93.94
2023-04-10T23:53:02.999Z,94.99
2023-04-10T23:55:29.963Z,95.91
2023-04-10T23:57:56.941Z,96.91
